sensor_id;sensor_type;location;lat;lon;timestamp;pressure;altitude;pressure_sealevel;temperature;humidity
24962;BME280;12992;50.884;13.668;2023-03-14T00:00:45;95328.34;;;9.94;100.00
24962;BME280;12992;50.884;13.668;2023-03-14T00:03:10;95356.28;;;10.00;100.00
24962;BME280;12992;50.884;13.668;2023-03-14T00:05:35;95342.16;;;9.98;100.00
24962;BME280;12992;50.884;13.668;2023-03-14T00:08:00;95319.50;;;10.03;100.00
24962;BME280;12992;50.884;13.668;2023-03-14T00:10:26;95324.13;;;10.02;100.00
24962;BME280;12992;50.884;13.668;2023-03-14T00:12:51;95322.31;;;9.98;100.00
24962;BME280;12992;50.884;13.668;2023-03-14T00:15:16;95302.78;;;9.96;100.00
24962;BME280;12992;50.884;13.668;2023-03-14T00:17:43;95292.22;;;9.94;100.00
24962;BME280;12992;50.884;13.668;2023-03-14T00:20:09;95287.88;;;9.93;100.00
24962;BME280;12992;50.884;13.668;2023-03-14T00:22:36;95275.41;;;9.92;100.00
24962;BME280;12992;50.884;13.668;2023-03-14T00:25:03;95266.44;;;9.91;100.00
24962;BME280;12992;50.884;13.668;2023-03-14T00:27:29;95242.84;;;9.87;100.00
24962;BME280;12992;50.884;13.668;2023-03-14T00:29:55;95254.13;;;9.80;100.00
24962;BME280;12992;50.884;13.668;2023-03-14T00:32:20;95273.16;;;9.80;100.00
24962;BME280;12992;50.884;13.668;2023-03-14T00:34:46;95290.38;;;9.76;100.00
24962;BME280;12992;50.884;13.668;2023-03-14T00:37:11;95311.44;;;9.84;100.00
24962;BME280;12992;50.884;13.668;2023-03-14T00:39:37;95326.94;;;9.83;100.00
24962;BME280;12992;50.884;13.668;2023-03-14T00:42:02;95329.66;;;9.83;100.00
24962;BME280;12992;50.884;13.668;2023-03-14T00:44:28;95327.44;;;9.85;100.00
24962;BME280;12992;50.884;13.668;2023-03-14T00:46:53;95319.88;;;9.82;100.00
24962;BME280;12992;50.884;13.668;2023-03-14T00:49:19;95334.78;;;9.85;100.00
24962;BME280;12992;50.884;13.668;2023-03-14T00:51:44;95330.47;;;9.84;100.00
24962;BME280;12992;50.884;13.668;2023-03-14T00:54:10;95335.28;;;9.87;100.00
24962;BME280;12992;50.884;13.668;2023-03-14T00:56:35;95345.06;;;9.88;100.00
24962;BME280;12992;50.884;13.668;2023-03-14T00:59:01;95339.03;;;9.91;100.00
24962;BME280;12992;50.884;13.668;2023-03-14T01:01:26;95349.59;;;9.92;100.00
24962;BME280;12992;50.884;13.668;2023-03-14T01:03:53;95351.53;;;9.92;100.00
24962;BME280;12992;50.884;13.668;2023-03-14T01:06:22;95357.16;;;9.96;100.00
24962;BME280;12992;50.884;13.668;2023-03-14T01:08:49;95360.97;;;9.94;100.00
24962;BME280;12992;50.884;13.668;2023-03-14T01:11:28;95359.88;;;9.96;100.00
24962;BME280;12992;50.884;13.668;2023-03-14T01:13:57;95354.25;;;9.92;100.00
24962;BME280;12992;50.884;13.668;2023-03-14T01:16:24;95345.28;;;9.91;100.00
24962;BME280;12992;50.884;13.668;2023-03-14T01:18:50;95329.78;;;9.92;100.00
24962;BME280;12992;50.884;13.668;2023-03-14T01:21:24;95341.44;;;9.92;100.00
24962;BME280;12992;50.884;13.668;2023-03-14T01:23:51;95341.75;;;9.91;100.00
24962;BME280;12992;50.884;13.668;2023-03-14T01:26:20;95351.81;;;9.90;100.00
24962;BME280;12992;50.884;13.668;2023-03-14T01:28:47;95349.09;;;9.90;100.00
24962;BME280;12992;50.884;13.668;2023-03-14T01:31:13;95354.00;;;9.88;100.00
24962;BME280;12992;50.884;13.668;2023-03-14T01:33:39;95347.19;;;9.91;100.00
24962;BME280;12992;50.884;13.668;2023-03-14T01:36:07;95351.53;;;9.92;100.00
24962;BME280;12992;50.884;13.668;2023-03-14T01:38:34;95363.19;;;9.92;100.00
24962;BME280;12992;50.884;13.668;2023-03-14T01:41:00;95357.16;;;9.96;100.00
24962;BME280;12992;50.884;13.668;2023-03-14T01:43:27;95346.78;;;9.98;100.00
24962;BME280;12992;50.884;13.668;2023-03-14T01:48:42;95325.84;;;9.98;100.00
24962;BME280;12992;50.884;13.668;2023-03-14T01:51:13;95323.34;;;10.02;100.00
24962;BME280;12992;50.884;13.668;2023-03-14T01:53:42;95321.59;;;10.06;100.00
24962;BME280;12992;50.884;13.668;2023-03-14T01:56:11;95318.19;;;10.14;100.00
24962;BME280;12992;50.884;13.668;2023-03-14T01:58:42;95315.16;;;10.15;100.00
24962;BME280;12992;50.884;13.668;2023-03-14T02:01:09;95298.34;;;10.13;100.00
24962;BME280;12992;50.884;13.668;2023-03-14T02:03:39;95303.78;;;10.13;100.00
24962;BME280;12992;50.884;13.668;2023-03-14T02:06:10;95301.59;;;10.29;100.00
24962;BME280;12992;50.884;13.668;2023-03-14T02:08:39;95298.97;;;10.38;100.00
24962;BME280;12992;50.884;13.668;2023-03-14T02:11:09;95287.13;;;10.34;100.00
24962;BME280;12992;50.884;13.668;2023-03-14T02:13:55;95265.75;;;10.27;100.00
24962;BME280;12992;50.884;13.668;2023-03-14T02:16:35;95262.81;;;10.24;100.00
24962;BME280;12992;50.884;13.668;2023-03-14T02:19:17;95263.13;;;10.22;100.00
24962;BME280;12992;50.884;13.668;2023-03-14T02:22:10;95250.59;;;10.21;100.00
24962;BME280;12992;50.884;13.668;2023-03-14T02:25:21;95259.56;;;10.21;100.00
24962;BME280;12992;50.884;13.668;2023-03-14T02:27:49;95256.84;;;10.21;100.00
24962;BME280;12992;50.884;13.668;2023-03-14T02:30:19;95255.66;;;10.28;100.00
24962;BME280;12992;50.884;13.668;2023-03-14T02:32:47;95248.81;;;10.30;100.00
24962;BME280;12992;50.884;13.668;2023-03-14T02:35:17;95251.84;;;10.29;100.00
24962;BME280;12992;50.884;13.668;2023-03-14T02:37:49;95250.91;;;10.33;100.00
24962;BME280;12992;50.884;13.668;2023-03-14T02:40:17;95249.84;;;10.34;100.00
24962;BME280;12992;50.884;13.668;2023-03-14T02:42:44;95235.34;;;10.25;100.00
24962;BME280;12992;50.884;13.668;2023-03-14T02:47:43;95245.19;;;10.35;100.00
24962;BME280;12992;50.884;13.668;2023-03-14T02:50:12;95238.50;;;10.41;100.00
24962;BME280;12992;50.884;13.668;2023-03-14T02:52:38;95248.00;;;10.43;100.00
24962;BME280;12992;50.884;13.668;2023-03-14T02:55:04;95250.81;;;10.52;100.00
24962;BME280;12992;50.884;13.668;2023-03-14T02:57:31;95261.16;;;10.64;100.00
24962;BME280;12992;50.884;13.668;2023-03-14T03:00:01;95237.63;;;10.68;100.00
24962;BME280;12992;50.884;13.668;2023-03-14T03:02:32;95242.56;;;10.80;100.00
24962;BME280;12992;50.884;13.668;2023-03-14T03:04:57;95224.91;;;10.77;100.00
24962;BME280;12992;50.884;13.668;2023-03-14T03:07:23;95218.47;;;10.73;100.00
24962;BME280;12992;50.884;13.668;2023-03-14T03:09:49;95197.91;;;10.67;100.00
24962;BME280;12992;50.884;13.668;2023-03-14T03:12:15;95195.19;;;10.67;100.00
24962;BME280;12992;50.884;13.668;2023-03-14T03:14:40;95208.81;;;10.67;100.00
24962;BME280;12992;50.884;13.668;2023-03-14T03:17:06;95201.91;;;10.61;100.00
24962;BME280;12992;50.884;13.668;2023-03-14T03:19:33;95195.13;;;10.58;100.00
24962;BME280;12992;50.884;13.668;2023-03-14T03:21:59;95199.16;;;10.61;100.00
24962;BME280;12992;50.884;13.668;2023-03-14T03:24:25;95206.41;;;10.65;100.00
24962;BME280;12992;50.884;13.668;2023-03-14T03:26:50;95202.97;;;10.60;100.00
24962;BME280;12992;50.884;13.668;2023-03-14T03:29:16;95204.63;;;10.61;100.00
24962;BME280;12992;50.884;13.668;2023-03-14T03:31:41;95203.59;;;10.57;100.00
24962;BME280;12992;50.884;13.668;2023-03-14T03:34:07;95199.91;;;10.53;100.00
24962;BME280;12992;50.884;13.668;2023-03-14T03:36:33;95195.13;;;10.58;100.00
24962;BME280;12992;50.884;13.668;2023-03-14T03:38:59;95199.28;;;10.56;100.00
24962;BME280;12992;50.884;13.668;2023-03-14T03:41:24;95190.41;;;10.50;100.00
24962;BME280;12992;50.884;13.668;2023-03-14T03:43:50;95188.50;;;10.50;100.00
24962;BME280;12992;50.884;13.668;2023-03-14T03:46:18;95182.47;;;10.54;100.00
24962;BME280;12992;50.884;13.668;2023-03-14T03:48:43;95183.06;;;10.50;100.00
24962;BME280;12992;50.884;13.668;2023-03-14T03:51:12;95170.69;;;10.44;100.00
24962;BME280;12992;50.884;13.668;2023-03-14T03:53:38;95158.69;;;10.45;100.00
24962;BME280;12992;50.884;13.668;2023-03-14T03:56:09;95169.91;;;10.44;100.00
24962;BME280;12992;50.884;13.668;2023-03-14T03:58:34;95143.41;;;10.36;100.00
24962;BME280;12992;50.884;13.668;2023-03-14T04:01:01;95146.31;;;10.39;100.00
24962;BME280;12992;50.884;13.668;2023-03-14T04:03:26;95128.50;;;10.33;100.00
24962;BME280;12992;50.884;13.668;2023-03-14T04:06:01;95141.00;;;10.34;100.00
24962;BME280;12992;50.884;13.668;2023-03-14T04:08:27;95137.78;;;10.32;100.00
24962;BME280;12992;50.884;13.668;2023-03-14T04:10:57;95129.13;;;10.30;100.00
24962;BME280;12992;50.884;13.668;2023-03-14T04:13:36;95131.97;;;10.25;100.00
24962;BME280;12992;50.884;13.668;2023-03-14T04:16:02;95126.00;;;10.23;100.00
24962;BME280;12992;50.884;13.668;2023-03-14T04:18:28;95126.00;;;10.23;100.00
24962;BME280;12992;50.884;13.668;2023-03-14T04:20:56;95130.75;;;10.17;100.00
24962;BME280;12992;50.884;13.668;2023-03-14T04:23:27;95124.72;;;10.07;100.00
24962;BME280;12992;50.884;13.668;2023-03-14T04:25:53;95124.34;;;10.00;100.00
24962;BME280;12992;50.884;13.668;2023-03-14T04:28:20;95129.69;;;9.91;100.00
24962;BME280;12992;50.884;13.668;2023-03-14T04:30:46;95125.78;;;9.83;100.00
24962;BME280;12992;50.884;13.668;2023-03-14T04:33:15;95119.84;;;9.81;100.00
24962;BME280;12992;50.884;13.668;2023-03-14T04:35:47;95125.47;;;9.85;100.00
24962;BME280;12992;50.884;13.668;2023-03-14T04:38:13;95131.22;;;9.83;100.00
24962;BME280;12992;50.884;13.668;2023-03-14T04:40:43;95126.19;;;9.77;100.00
24962;BME280;12992;50.884;13.668;2023-03-14T04:43:10;95112.91;;;9.75;100.00
24962;BME280;12992;50.884;13.668;2023-03-14T04:45:43;95118.66;;;9.74;100.00
24962;BME280;12992;50.884;13.668;2023-03-14T04:48:10;95126.19;;;9.77;100.00
24962;BME280;12992;50.884;13.668;2023-03-14T04:50:36;95123.78;;;9.75;100.00
24962;BME280;12992;50.884;13.668;2023-03-14T04:53:01;95109.19;;;9.71;100.00
24962;BME280;12992;50.884;13.668;2023-03-14T04:55:27;95107.06;;;9.68;100.00
24962;BME280;12992;50.884;13.668;2023-03-14T04:57:54;95105.47;;;9.67;100.00
24962;BME280;12992;50.884;13.668;2023-03-14T05:00:21;95113.44;;;9.63;100.00
24962;BME280;12992;50.884;13.668;2023-03-14T05:02:50;95110.50;;;9.60;100.00
24962;BME280;12992;50.884;13.668;2023-03-14T05:05:44;95102.47;;;9.55;100.00
24962;BME280;12992;50.884;13.668;2023-03-14T05:08:23;95116.34;;;9.53;100.00
24962;BME280;12992;50.884;13.668;2023-03-14T05:11:17;95103.16;;;9.60;100.00
24962;BME280;12992;50.884;13.668;2023-03-14T05:14:09;95104.19;;;9.64;100.00
24962;BME280;12992;50.884;13.668;2023-03-14T05:16:53;95105.88;;;9.60;100.00
24962;BME280;12992;50.884;13.668;2023-03-14T05:19:27;95118.56;;;9.65;100.00
24962;BME280;12992;50.884;13.668;2023-03-14T05:22:04;95113.72;;;9.62;100.00
24962;BME280;12992;50.884;13.668;2023-03-14T05:24:49;95107.78;;;9.60;100.00
24962;BME280;12992;50.884;13.668;2023-03-14T05:27:30;95122.41;;;9.64;100.00
24962;BME280;12992;50.884;13.668;2023-03-14T05:29:58;95114.13;;;9.69;100.00
24962;BME280;12992;50.884;13.668;2023-03-14T05:32:52;95104.84;;;9.70;100.00
24962;BME280;12992;50.884;13.668;2023-03-14T05:35:30;95098.03;;;9.73;100.00
24962;BME280;12992;50.884;13.668;2023-03-14T05:38:06;95102.53;;;9.77;100.00
24962;BME280;12992;50.884;13.668;2023-03-14T05:40:44;95083.13;;;9.70;100.00
24962;BME280;12992;50.884;13.668;2023-03-14T05:43:32;95074.28;;;9.64;100.00
24962;BME280;12992;50.884;13.668;2023-03-14T05:46:09;95097.63;;;9.65;100.00
24962;BME280;12992;50.884;13.668;2023-03-14T05:48:47;95083.13;;;9.70;100.00
24962;BME280;12992;50.884;13.668;2023-03-14T05:51:25;95085.66;;;9.67;100.00
24962;BME280;12992;50.884;13.668;2023-03-14T05:54:10;95077.50;;;9.67;100.00
24962;BME280;12992;50.884;13.668;2023-03-14T05:56:46;95093.41;;;9.73;100.00
24962;BME280;12992;50.884;13.668;2023-03-14T05:59:20;95099.94;;;9.72;100.00
24962;BME280;12992;50.884;13.668;2023-03-14T06:02:06;95095.59;;;9.71;100.00
24962;BME280;12992;50.884;13.668;2023-03-14T06:04:42;95098.84;;;9.73;100.00
24962;BME280;12992;50.884;13.668;2023-03-14T06:07:08;95098.22;;;9.76;100.00
24962;BME280;12992;50.884;13.668;2023-03-14T06:09:33;95093.25;;;9.78;100.00
24962;BME280;12992;50.884;13.668;2023-03-14T06:12:00;95099.81;;;9.77;100.00
24962;BME280;12992;50.884;13.668;2023-03-14T06:14:29;95101.25;;;9.75;100.00
24962;BME280;12992;50.884;13.668;2023-03-14T06:16:55;95112.28;;;9.78;100.00
24962;BME280;12992;50.884;13.668;2023-03-14T06:19:23;95112.59;;;9.77;100.00
24962;BME280;12992;50.884;13.668;2023-03-14T06:21:48;95120.44;;;9.78;100.00
24962;BME280;12992;50.884;13.668;2023-03-14T06:24:14;95111.09;;;9.84;100.00
24962;BME280;12992;50.884;13.668;2023-03-14T06:26:44;95120.44;;;9.92;100.00
24962;BME280;12992;50.884;13.668;2023-03-14T06:29:10;95122.34;;;9.91;100.00
24962;BME280;12992;50.884;13.668;2023-03-14T06:31:38;95110.97;;;9.89;100.00
24962;BME280;12992;50.884;13.668;2023-03-14T06:34:05;95132.72;;;9.89;100.00
24962;BME280;12992;50.884;13.668;2023-03-14T06:36:31;95147.94;;;9.90;100.00
24962;BME280;12992;50.884;13.668;2023-03-14T06:38:57;95134.63;;;9.89;100.00
24962;BME280;12992;50.884;13.668;2023-03-14T06:41:24;95153.56;;;9.94;100.00
24962;BME280;12992;50.884;13.668;2023-03-14T06:43:51;95159.47;;;9.96;100.00
24962;BME280;12992;50.884;13.668;2023-03-14T06:46:17;95153.16;;;10.01;100.00
24962;BME280;12992;50.884;13.668;2023-03-14T06:48:43;95157.06;;;10.08;100.00
24962;BME280;12992;50.884;13.668;2023-03-14T06:51:08;95153.91;;;10.15;100.00
24962;BME280;12992;50.884;13.668;2023-03-14T06:53:34;95163.56;;;10.21;100.00
24962;BME280;12992;50.884;13.668;2023-03-14T06:56:01;95167.03;;;10.27;100.00
24962;BME280;12992;50.884;13.668;2023-03-14T06:58:28;95154.81;;;10.24;100.00
24962;BME280;12992;50.884;13.668;2023-03-14T07:00:54;95150.69;;;10.27;100.00
24962;BME280;12992;50.884;13.668;2023-03-14T07:03:23;95164.00;;;10.28;100.00
24962;BME280;12992;50.884;13.668;2023-03-14T07:05:50;95157.44;;;10.29;100.00
24962;BME280;12992;50.884;13.668;2023-03-14T07:08:15;95170.41;;;10.32;100.00
24962;BME280;12992;50.884;13.668;2023-03-14T07:10:41;95170.00;;;10.39;100.00
24962;BME280;12992;50.884;13.668;2023-03-14T07:13:07;95167.28;;;10.39;100.00
24962;BME280;12992;50.884;13.668;2023-03-14T07:15:37;95179.97;;;10.43;100.00
24962;BME280;12992;50.884;13.668;2023-03-14T07:18:07;95171.00;;;10.43;99.57
24962;BME280;12992;50.884;13.668;2023-03-14T07:20:32;95185.28;;;10.48;99.66
24962;BME280;12992;50.884;13.668;2023-03-14T07:22:59;95194.16;;;10.54;100.00
24962;BME280;12992;50.884;13.668;2023-03-14T07:25:46;95194.81;;;10.60;99.57
24962;BME280;12992;50.884;13.668;2023-03-14T07:28:13;95180.06;;;10.52;98.82
24962;BME280;12992;50.884;13.668;2023-03-14T07:30:41;95177.25;;;10.43;100.00
24962;BME280;12992;50.884;13.668;2023-03-14T07:33:13;95178.06;;;10.44;100.00
24962;BME280;12992;50.884;13.668;2023-03-14T07:35:39;95184.16;;;10.49;99.94
24962;BME280;12992;50.884;13.668;2023-03-14T07:38:05;95193.03;;;10.55;100.00
24962;BME280;12992;50.884;13.668;2023-03-14T07:40:35;95200.66;;;10.67;97.22
24962;BME280;12992;50.884;13.668;2023-03-14T07:43:02;95208.56;;;10.77;97.97
24962;BME280;12992;50.884;13.668;2023-03-14T07:45:39;95205.56;;;10.78;97.42
24962;BME280;12992;50.884;13.668;2023-03-14T07:48:04;95207.81;;;10.85;97.11
24962;BME280;12992;50.884;13.668;2023-03-14T07:50:30;95205.31;;;10.89;98.10
24962;BME280;12992;50.884;13.668;2023-03-14T07:52:55;95203.88;;;10.91;96.49
24962;BME280;12992;50.884;13.668;2023-03-14T07:55:21;95184.66;;;10.88;95.42
24962;BME280;12992;50.884;13.668;2023-03-14T07:57:46;95194.16;;;10.99;95.56
24962;BME280;12992;50.884;13.668;2023-03-14T08:00:12;95186.16;;;11.02;95.52
24962;BME280;12992;50.884;13.668;2023-03-14T08:02:39;95167.78;;;10.86;93.73
24962;BME280;12992;50.884;13.668;2023-03-14T08:05:05;95175.53;;;10.92;95.34
24962;BME280;12992;50.884;13.668;2023-03-14T08:07:30;95173.81;;;10.96;95.42
24962;BME280;12992;50.884;13.668;2023-03-14T08:09:56;95186.97;;;11.03;96.84
24962;BME280;12992;50.884;13.668;2023-03-14T08:12:21;95190.88;;;11.11;94.49
24962;BME280;12992;50.884;13.668;2023-03-14T08:14:46;95191.06;;;11.14;94.90
24962;BME280;12992;50.884;13.668;2023-03-14T08:17:12;95193.28;;;11.12;95.41
24962;BME280;12992;50.884;13.668;2023-03-14T08:19:37;95185.06;;;11.03;96.21
24962;BME280;12992;50.884;13.668;2023-03-14T08:22:02;95171.56;;;10.98;94.54
24962;BME280;12992;50.884;13.668;2023-03-14T08:24:28;95169.47;;;10.95;94.82
24962;BME280;12992;50.884;13.668;2023-03-14T08:26:53;95170.78;;;10.98;96.17
24962;BME280;12992;50.884;13.668;2023-03-14T08:29:18;95168.47;;;10.91;95.36
24962;BME280;12992;50.884;13.668;2023-03-14T08:31:44;95173.81;;;10.96;95.67
24962;BME280;12992;50.884;13.668;2023-03-14T08:34:09;95172.06;;;11.00;94.38
24962;BME280;12992;50.884;13.668;2023-03-14T08:36:35;95184.81;;;11.14;96.48
24962;BME280;12992;50.884;13.668;2023-03-14T08:39:00;95188.06;;;11.24;92.30
24962;BME280;12992;50.884;13.668;2023-03-14T08:41:25;95193.94;;;11.40;92.42
24962;BME280;12992;50.884;13.668;2023-03-14T08:43:51;95202.69;;;11.59;92.07
24962;BME280;12992;50.884;13.668;2023-03-14T08:46:16;95181.19;;;11.58;89.22
24962;BME280;12992;50.884;13.668;2023-03-14T08:48:41;95156.41;;;11.37;92.71
24962;BME280;12992;50.884;13.668;2023-03-14T08:51:12;95168.28;;;11.41;89.75
24962;BME280;12992;50.884;13.668;2023-03-14T08:53:38;95170.66;;;11.34;91.52
24962;BME280;12992;50.884;13.668;2023-03-14T08:56:05;95158.75;;;11.30;90.59
24962;BME280;12992;50.884;13.668;2023-03-14T08:58:31;95152.66;;;11.24;90.72
24962;BME280;12992;50.884;13.668;2023-03-14T09:00:57;95163.72;;;11.28;91.83
24962;BME280;12992;50.884;13.668;2023-03-14T09:03:22;95166.78;;;11.26;92.77
24962;BME280;12992;50.884;13.668;2023-03-14T09:05:49;95159.56;;;11.30;91.23
24962;BME280;12992;50.884;13.668;2023-03-14T09:08:14;95166.34;;;11.33;91.19
24962;BME280;12992;50.884;13.668;2023-03-14T09:10:39;95169.84;;;11.33;93.42
24962;BME280;12992;50.884;13.668;2023-03-14T09:13:05;95176.31;;;11.46;90.97
24962;BME280;12992;50.884;13.668;2023-03-14T09:15:30;95183.59;;;11.59;91.77
24962;BME280;12992;50.884;13.668;2023-03-14T09:17:55;95198.56;;;11.71;91.69
24962;BME280;12992;50.884;13.668;2023-03-14T09:20:21;95207.16;;;11.86;89.66
24962;BME280;12992;50.884;13.668;2023-03-14T09:22:46;95222.94;;;12.07;90.02
24962;BME280;12992;50.884;13.668;2023-03-14T09:25:11;95193.13;;;12.10;86.56
24962;BME280;12992;50.884;13.668;2023-03-14T09:27:37;95175.41;;;11.99;86.27
24962;BME280;12992;50.884;13.668;2023-03-14T09:30:03;95188.56;;;11.97;87.79
24962;BME280;12992;50.884;13.668;2023-03-14T09:32:30;95172.22;;;11.97;86.75
24962;BME280;12992;50.884;13.668;2023-03-14T09:34:56;95181.34;;;12.01;87.70
24962;BME280;12992;50.884;13.668;2023-03-14T09:37:21;95169.81;;;12.04;86.97
24962;BME280;12992;50.884;13.668;2023-03-14T09:39:47;95152.00;;;11.98;85.08
24962;BME280;12992;50.884;13.668;2023-03-14T09:42:14;95163.84;;;11.85;87.78
24962;BME280;12992;50.884;13.668;2023-03-14T09:45:00;95144.69;;;11.68;88.56
24962;BME280;12992;50.884;13.668;2023-03-14T09:47:28;95148.53;;;11.67;87.50
24962;BME280;12992;50.884;13.668;2023-03-14T09:49:53;95137.09;;;11.64;86.71
24962;BME280;12992;50.884;13.668;2023-03-14T09:52:25;95151.06;;;11.63;89.10
24962;BME280;12992;50.884;13.668;2023-03-14T09:57:19;95120.69;;;11.47;86.16
24962;BME280;12992;50.884;13.668;2023-03-14T09:59:47;95121.78;;;11.38;85.39
24962;BME280;12992;50.884;13.668;2023-03-14T10:04:45;95124.47;;;11.29;86.74
24962;BME280;12992;50.884;13.668;2023-03-14T10:07:15;95130.66;;;11.21;87.71
24962;BME280;12992;50.884;13.668;2023-03-14T10:09:43;95135.00;;;11.22;88.67
24962;BME280;12992;50.884;13.668;2023-03-14T10:12:08;95143.38;;;11.25;87.85
24962;BME280;12992;50.884;13.668;2023-03-14T10:14:37;95150.78;;;11.33;89.09
24962;BME280;12992;50.884;13.668;2023-03-14T10:17:08;95142.78;;;11.37;87.90
24962;BME280;12992;50.884;13.668;2023-03-14T10:19:34;95143.53;;;11.29;88.22
24962;BME280;12992;50.884;13.668;2023-03-14T10:22:02;95117.56;;;11.23;87.11
24962;BME280;12992;50.884;13.668;2023-03-14T10:24:31;95113.69;;;11.15;88.38
24962;BME280;12992;50.884;13.668;2023-03-14T10:27:05;95134.56;;;11.28;89.17
24962;BME280;12992;50.884;13.668;2023-03-14T10:29:32;95141.03;;;11.41;87.00
24962;BME280;12992;50.884;13.668;2023-03-14T10:32:05;95164.88;;;11.67;85.81
24962;BME280;12992;50.884;13.668;2023-03-14T10:34:34;95172.84;;;11.85;84.78
24962;BME280;12992;50.884;13.668;2023-03-14T10:37:26;95170.41;;;11.93;85.67
24962;BME280;12992;50.884;13.668;2023-03-14T10:39:54;95144.56;;;11.81;85.74
24962;BME280;12992;50.884;13.668;2023-03-14T10:42:28;95134.91;;;11.75;84.92
24962;BME280;12992;50.884;13.668;2023-03-14T10:45:03;95147.28;;;11.81;87.66
24962;BME280;12992;50.884;13.668;2023-03-14T10:47:32;95132.84;;;11.81;84.79
24962;BME280;12992;50.884;13.668;2023-03-14T10:50:21;95138.78;;;11.83;86.84
24962;BME280;12992;50.884;13.668;2023-03-14T10:52:48;95138.50;;;11.84;84.96
24962;BME280;12992;50.884;13.668;2023-03-14T10:55:14;95135.25;;;11.82;86.17
24962;BME280;12992;50.884;13.668;2023-03-14T10:57:40;95135.59;;;11.81;87.71
24962;BME280;12992;50.884;13.668;2023-03-14T11:00:14;95126.56;;;11.72;85.75
24962;BME280;12992;50.884;13.668;2023-03-14T11:02:49;95140.97;;;11.72;86.58
24962;BME280;12992;50.884;13.668;2023-03-14T11:05:43;95148.38;;;11.72;88.17
24962;BME280;12992;50.884;13.668;2023-03-14T11:08:46;95132.28;;;11.61;86.03
24962;BME280;12992;50.884;13.668;2023-03-14T11:11:20;95136.63;;;11.62;87.86
24962;BME280;12992;50.884;13.668;2023-03-14T11:14:06;95135.50;;;11.63;86.63
24962;BME280;12992;50.884;13.668;2023-03-14T11:16:42;95151.16;;;11.80;87.92
24962;BME280;12992;50.884;13.668;2023-03-14T11:22:30;95160.53;;;12.14;84.02
24962;BME280;12992;50.884;13.668;2023-03-14T11:25:16;95153.16;;;12.14;83.95
24962;BME280;12992;50.884;13.668;2023-03-14T11:27:58;95155.75;;;12.19;83.49
24962;BME280;12992;50.884;13.668;2023-03-14T11:33:11;95152.53;;;12.35;82.81
24962;BME280;12992;50.884;13.668;2023-03-14T11:35:55;95164.59;;;12.51;83.60
24962;BME280;12992;50.884;13.668;2023-03-14T11:38:30;95131.69;;;12.47;79.77
24962;BME280;12992;50.884;13.668;2023-03-14T11:40:59;95153.81;;;12.72;82.15
24962;BME280;12992;50.884;13.668;2023-03-14T11:43:35;95167.78;;;12.96;81.88
24962;BME280;12992;50.884;13.668;2023-03-14T11:46:15;95125.69;;;12.89;78.22
24962;BME280;12992;50.884;13.668;2023-03-14T11:48:55;95101.31;;;12.66;79.78
24962;BME280;12992;50.884;13.668;2023-03-14T11:51:27;95069.84;;;12.34;79.87
24962;BME280;12992;50.884;13.668;2023-03-14T11:54:18;95093.00;;;12.37;83.51
24962;BME280;12992;50.884;13.668;2023-03-14T11:56:50;95091.22;;;12.41;81.29
24962;BME280;12992;50.884;13.668;2023-03-14T11:59:21;95113.53;;;12.52;84.71
24962;BME280;12992;50.884;13.668;2023-03-14T12:02:12;95223.97;;;13.58;86.98
24962;BME280;12992;50.884;13.668;2023-03-14T12:05:20;95239.75;;;15.09;75.69
24962;BME280;12992;50.884;13.668;2023-03-14T12:10:29;95131.44;;;15.36;70.50
24962;BME280;12992;50.884;13.668;2023-03-14T12:13:01;95105.63;;;14.91;72.80
24962;BME280;12992;50.884;13.668;2023-03-14T12:15:26;95072.97;;;14.44;74.49
24962;BME280;12992;50.884;13.668;2023-03-14T12:17:56;95071.81;;;13.83;80.40
24962;BME280;12992;50.884;13.668;2023-03-14T12:20:23;95066.00;;;13.25;84.22
24962;BME280;12992;50.884;13.668;2023-03-14T12:22:56;95033.91;;;12.41;85.83
24962;BME280;12992;50.884;13.668;2023-03-14T12:25:27;95047.22;;;12.16;89.78
24962;BME280;12992;50.884;13.668;2023-03-14T12:30:35;95089.75;;;12.17;93.53
24962;BME280;12992;50.884;13.668;2023-03-14T12:35:43;95123.47;;;12.22;100.00
24962;BME280;12992;50.884;13.668;2023-03-14T12:41:01;95097.53;;;11.76;100.00
24962;BME280;12992;50.884;13.668;2023-03-14T12:43:30;95102.44;;;11.56;100.00
24962;BME280;12992;50.884;13.668;2023-03-14T12:48:33;95126.19;;;11.64;100.00
24962;BME280;12992;50.884;13.668;2023-03-14T12:51:11;95119.00;;;11.69;100.00
24962;BME280;12992;50.884;13.668;2023-03-14T12:59:29;95117.31;;;11.81;100.00
24962;BME280;12992;50.884;13.668;2023-03-14T13:04:44;95109.88;;;11.73;100.00
24962;BME280;12992;50.884;13.668;2023-03-14T13:07:33;95110.97;;;11.63;100.00
24962;BME280;12992;50.884;13.668;2023-03-14T13:10:02;95097.16;;;11.51;100.00
24962;BME280;12992;50.884;13.668;2023-03-14T13:12:40;95073.63;;;11.16;100.00
24962;BME280;12992;50.884;13.668;2023-03-14T13:15:34;95083.34;;;11.08;100.00
24962;BME280;12992;50.884;13.668;2023-03-14T13:18:12;95085.75;;;11.10;100.00
24962;BME280;12992;50.884;13.668;2023-03-14T13:20:48;95092.50;;;11.12;100.00
24962;BME280;12992;50.884;13.668;2023-03-14T13:23:35;95116.84;;;11.40;100.00
24962;BME280;12992;50.884;13.668;2023-03-14T13:26:02;95133.19;;;11.88;100.00
24962;BME280;12992;50.884;13.668;2023-03-14T13:28:29;95145.47;;;12.25;100.00
24962;BME280;12992;50.884;13.668;2023-03-14T13:31:01;95138.75;;;12.40;100.00
24962;BME280;12992;50.884;13.668;2023-03-14T13:33:26;95131.03;;;12.42;100.00
24962;BME280;12992;50.884;13.668;2023-03-14T13:36:03;95100.66;;;12.26;100.00
24962;BME280;12992;50.884;13.668;2023-03-14T13:38:31;95092.47;;;12.09;100.00
24962;BME280;12992;50.884;13.668;2023-03-14T13:41:04;95092.31;;;12.05;100.00